Time;durP1;ratioP1;P1;durP2;ratioP2;P2;SDS_P1;SDS_P2;PMS_P1;PMS_P2;Temp;Humidity;BMP_temperature;BMP_pressure;BME280_temperature;BME280_humidity;BME280_pressure;Samples;Min_cycle;Max_cycle;Signal;HPM_P1;HPM_P2
2023/04/11 00:01:22;;;;;;;3.92;0.77;;;6.70;99.90;;;;;;5092436;28;20044;-57
2023/04/11 00:03:48;;;;;;;3.47;0.65;;;6.70;99.90;;;;;;5097117;28;20427;-57
2023/04/11 00:06:13;;;;;;;7.25;1.17;;;6.70;99.90;;;;;;5095866;28;20032;-58
2023/04/11 00:08:39;;;;;;;4.03;0.30;;;6.80;99.90;;;;;;5090035;28;20047;-57
2023/04/11 00:11:04;;;;;;;3.53;0.43;;;6.80;99.90;;;;;;5103592;28;20032;-55
2023/04/11 00:13:30;;;;;;;3.15;0.95;;;6.80;99.90;;;;;;5104212;28;20290;-58
2023/04/11 00:15:57;;;;;;;3.40;0.30;;;6.80;99.90;;;;;;5097483;28;20031;-56
2023/04/11 00:18:24;;;;;;;2.70;0.50;;;6.80;99.90;;;;;;5106234;28;20674;-57
2023/04/11 00:20:50;;;;;;;5.60;1.40;;;6.80;99.90;;;;;;5100430;28;20042;-58
2023/04/11 00:23:15;;;;;;;5.63;0.98;;;6.80;99.90;;;;;;5098285;27;20028;-58
2023/04/11 00:25:41;;;;;;;4.63;1.20;;;6.80;99.90;;;;;;5099141;28;20451;-57
2023/04/11 00:28:07;;;;;;;6.30;0.55;;;6.90;99.90;;;;;;5107099;28;20031;-56
2023/04/11 00:30:32;;;;;;;3.63;0.57;;;6.90;99.90;;;;;;5102886;28;20032;-59
2023/04/11 00:32:58;;;;;;;4.83;0.83;;;6.80;99.90;;;;;;5092144;28;20507;-59
2023/04/11 00:35:23;;;;;;;4.00;0.43;;;6.80;99.90;;;;;;5094405;28;20040;-55
2023/04/11 00:37:54;;;;;;;6.40;0.60;;;6.80;99.90;;;;;;5107490;28;20071;-58
2023/04/11 00:40:20;;;;;;;2.45;0.55;;;6.80;99.90;;;;;;5104152;28;20040;-57
2023/04/11 00:42:47;;;;;;;5.53;0.60;;;6.70;99.90;;;;;;5104491;27;20031;-58
2023/04/11 00:45:12;;;;;;;;;;;6.70;99.90;;;;;;5106820;28;20060;-56
2023/04/11 00:47:39;;;;;;;7.95;1.83;;;6.60;99.90;;;;;;5093030;28;19993;-59
2023/04/11 00:50:05;;;;;;;;;;;6.60;99.90;;;;;;5092667;28;20032;-57
2023/04/11 00:52:31;;;;;;;7.22;1.52;;;6.60;99.90;;;;;;5094693;28;19969;-55
2023/04/11 00:54:57;;;;;;;7.03;1.10;;;6.50;99.90;;;;;;5108874;28;20028;-55
2023/04/11 00:57:24;;;;;;;6.07;0.70;;;6.50;99.90;;;;;;5106643;28;20298;-60
2023/04/11 00:59:50;;;;;;;2.90;0.68;;;6.50;99.90;;;;;;5108420;28;20060;-57
2023/04/11 01:02:17;;;;;;;8.15;1.10;;;6.40;99.90;;;;;;5106743;28;20235;-55
2023/04/11 01:04:43;;;;;;;3.00;0.70;;;6.40;99.90;;;;;;5107800;28;20501;-58
2023/04/11 01:07:10;;;;;;;1.77;0.40;;;6.40;99.90;;;;;;5102681;28;20413;-59
2023/04/11 01:09:36;;;;;;;2.08;0.50;;;6.40;99.90;;;;;;5093566;27;20039;-59
2023/04/11 01:12:04;;;;;;;5.28;1.20;;;6.40;99.90;;;;;;5093429;28;20085;-55
2023/04/11 01:14:29;;;;;;;5.88;0.75;;;6.40;99.90;;;;;;5096828;28;20036;-58
2023/04/11 01:16:56;;;;;;;3.08;0.52;;;6.40;99.90;;;;;;5099701;28;20028;-58
2023/04/11 01:19:23;;;;;;;;;;;6.40;99.90;;;;;;5089885;28;20047;-59
2023/04/11 01:21:50;;;;;;;2.72;0.40;;;6.40;99.90;;;;;;5100080;28;19915;-57
2023/04/11 01:24:16;;;;;;;3.83;0.50;;;6.40;99.90;;;;;;5093389;28;20032;-57
2023/04/11 01:26:42;;;;;;;6.85;0.63;;;6.40;99.90;;;;;;5101124;28;20101;-55
2023/04/11 01:29:07;;;;;;;3.25;0.50;;;6.40;99.90;;;;;;5089649;28;20312;-57
2023/04/11 01:31:33;;;;;;;4.60;0.97;;;6.50;99.90;;;;;;5103269;28;20413;-59
2023/04/11 01:34:03;;;;;;;3.87;0.90;;;6.50;99.90;;;;;;5090743;28;20028;-57
2023/04/11 01:36:30;;;;;;;5.07;0.70;;;6.50;99.90;;;;;;5105086;28;20110;-58
2023/04/11 01:38:56;;;;;;;4.25;1.48;;;6.50;99.90;;;;;;5089369;28;20497;-57
2023/04/11 01:41:23;;;;;;;4.53;1.37;;;6.40;99.90;;;;;;5091944;28;20085;-54
2023/04/11 01:43:49;;;;;;;9.18;1.05;;;6.40;99.90;;;;;;5106703;28;20044;-57
2023/04/11 01:46:15;;;;;;;5.32;1.00;;;6.40;99.90;;;;;;5105190;28;20066;-59
2023/04/11 01:48:42;;;;;;;5.25;0.93;;;6.40;99.90;;;;;;5105796;28;20408;-57
2023/04/11 01:51:07;;;;;;;9.13;1.50;;;6.40;99.90;;;;;;5107697;28;20602;-57
2023/04/11 01:53:33;;;;;;;10.47;1.73;;;6.40;99.90;;;;;;5091882;28;20059;-55
2023/04/11 01:55:59;;;;;;;6.60;2.10;;;6.40;99.90;;;;;;5089679;28;20332;-56
2023/04/11 01:58:24;;;;;;;5.13;2.10;;;6.40;99.90;;;;;;5102891;28;20281;-56
2023/04/11 02:00:50;;;;;;;13.93;1.83;;;6.40;99.90;;;;;;5107892;28;20031;-56
2023/04/11 02:03:17;;;;;;;7.37;1.30;;;6.50;99.90;;;;;;5094866;28;20097;-56
2023/04/11 02:05:43;;;;;;;5.85;1.13;;;6.50;99.90;;;;;;5089789;28;20032;-56
2023/04/11 02:08:09;;;;;;;11.63;2.00;;;6.50;99.90;;;;;;5093637;28;20047;-59
2023/04/11 02:10:35;;;;;;;12.32;1.80;;;6.50;99.90;;;;;;5089380;28;20278;-55
2023/04/11 02:13:00;;;;;;;14.40;3.13;;;6.60;99.90;;;;;;5091751;28;20123;-59
2023/04/11 02:15:26;;;;;;;9.93;2.73;;;6.60;99.90;;;;;;5088023;28;20162;-57
2023/04/11 02:17:53;;;;;;;7.33;2.60;;;6.60;99.90;;;;;;5096365;28;20093;-57
2023/04/11 02:20:20;;;;;;;14.40;3.25;;;6.60;99.90;;;;;;5107943;28;20118;-56
2023/04/11 02:22:46;;;;;;;11.88;2.47;;;6.70;99.90;;;;;;5104821;28;20040;-57
2023/04/11 02:25:12;;;;;;;14.93;3.15;;;6.70;99.90;;;;;;5098681;28;20036;-55
2023/04/11 02:27:37;;;;;;;19.33;3.27;;;6.80;99.90;;;;;;5097010;28;20096;-59
2023/04/11 02:30:04;;;;;;;8.83;2.53;;;6.80;99.90;;;;;;5104689;27;20779;-59
2023/04/11 02:32:36;;;;;;;10.57;3.38;;;6.80;99.90;;;;;;5097040;28;20035;-56
2023/04/11 02:35:04;;;;;;;16.13;4.15;;;6.90;99.90;;;;;;5108742;28;20032;-57
2023/04/11 02:37:30;;;;;;;13.43;3.35;;;6.90;99.90;;;;;;5094010;28;20073;-57
2023/04/11 02:39:56;;;;;;;19.90;3.70;;;7.00;99.90;;;;;;5110944;28;20027;-58
2023/04/11 02:42:22;;;;;;;;;;;7.00;99.90;;;;;;5110240;28;20489;-56
2023/04/11 02:44:47;;;;;;;15.32;3.35;;;7.10;99.90;;;;;;5093525;28;20073;-57
2023/04/11 02:47:13;;;;;;;14.07;2.83;;;7.10;99.90;;;;;;5106916;28;20306;-57
2023/04/11 02:49:42;;;;;;;11.20;1.87;;;7.20;99.90;;;;;;5093685;28;20289;-56
2023/04/11 02:52:08;;;;;;;16.00;4.20;;;7.30;99.90;;;;;;5105026;28;20454;-57
2023/04/11 02:54:34;;;;;;;16.70;3.58;;;7.30;99.90;;;;;;5106499;28;20083;-59
2023/04/11 02:57:00;;;;;;;14.10;2.42;;;7.40;99.90;;;;;;5095048;27;20035;-59
2023/04/11 02:59:26;;;;;;;15.93;3.15;;;7.40;99.90;;;;;;5105007;28;20053;-57
2023/04/11 03:01:59;;;;;;;12.03;2.83;;;7.50;99.90;;;;;;5110177;28;20031;-58
2023/04/11 03:04:24;;;;;;;12.13;2.28;;;7.50;99.90;;;;;;5097661;28;20290;-58
2023/04/11 03:06:50;;;;;;;21.43;3.23;;;7.50;99.90;;;;;;5092925;27;20028;-59
2023/04/11 03:09:16;;;;;;;17.27;2.27;;;7.60;99.90;;;;;;5102776;28;20673;-57
2023/04/11 03:11:41;;;;;;;16.00;2.80;;;7.60;99.90;;;;;;5109414;28;20028;-54
2023/04/11 03:14:07;;;;;;;15.40;2.37;;;7.60;99.90;;;;;;5102202;28;20035;-56
2023/04/11 03:16:32;;;;;;;15.27;2.70;;;7.60;99.90;;;;;;5092293;28;20036;-58
2023/04/11 03:18:58;;;;;;;16.20;2.00;;;7.70;99.90;;;;;;5090872;28;20043;-58
2023/04/11 03:21:24;;;;;;;24.27;3.40;;;7.70;99.90;;;;;;5104442;28;20357;-57
2023/04/11 03:23:50;;;;;;;17.65;3.72;;;7.70;99.90;;;;;;5104234;28;20282;-58
2023/04/11 03:26:15;;;;;;;15.10;4.10;;;7.70;99.90;;;;;;5109403;28;20328;-59
2023/04/11 03:28:41;;;;;;;24.25;2.75;;;7.70;99.90;;;;;;5103040;28;20040;-57
2023/04/11 03:31:07;;;;;;;22.20;4.03;;;7.80;99.90;;;;;;5092289;28;20028;-58
2023/04/11 03:33:32;;;;;;;23.17;5.23;;;7.70;99.90;;;;;;5103647;28;20039;-56
2023/04/11 03:35:58;;;;;;;22.73;4.60;;;7.70;99.90;;;;;;5092134;28;20107;-58
2023/04/11 03:38:24;;;;;;;27.73;6.60;;;7.80;99.90;;;;;;5090886;28;20454;-57
2023/04/11 03:40:49;;;;;;;19.10;4.57;;;7.70;99.90;;;;;;5108199;28;20039;-59
2023/04/11 03:43:16;;;;;;;27.53;5.27;;;7.70;99.90;;;;;;5108507;28;20035;-60
2023/04/11 03:45:41;;;;;;;31.35;6.55;;;7.70;99.90;;;;;;5108607;28;20309;-59
2023/04/11 03:48:07;;;;;;;20.42;5.00;;;7.80;99.90;;;;;;5095905;28;20074;-59
2023/04/11 03:50:32;;;;;;;29.80;5.47;;;7.80;99.90;;;;;;5104135;28;20034;-56
2023/04/11 03:52:58;;;;;;;19.77;4.83;;;7.80;99.90;;;;;;5091718;28;20131;-56
2023/04/11 03:55:24;;;;;;;19.00;3.37;;;7.80;99.90;;;;;;5097085;28;20032;-57
2023/04/11 03:57:50;;;;;;;;;;;7.80;99.90;;;;;;5099816;28;20114;-57
2023/04/11 04:00:17;;;;;;;16.08;3.17;;;7.80;99.90;;;;;;5097986;28;20393;-56
2023/04/11 04:02:43;;;;;;;13.75;1.92;;;7.80;99.90;;;;;;5109185;28;20039;-53
2023/04/11 04:05:08;;;;;;;20.23;3.13;;;7.80;99.90;;;;;;5098149;28;20414;-58
2023/04/11 04:07:34;;;;;;;23.23;3.97;;;7.80;99.90;;;;;;5090374;28;20043;-58
2023/04/11 04:10:00;;;;;;;27.37;4.30;;;7.80;99.90;;;;;;5092320;28;20389;-57
2023/04/11 04:12:25;;;;;;;12.10;2.80;;;7.90;99.90;;;;;;5090523;28;20105;-58
2023/04/11 04:14:51;;;;;;;16.90;3.03;;;7.80;99.90;;;;;;5108897;28;20034;-56
2023/04/11 04:17:16;;;;;;;12.07;3.05;;;7.80;99.90;;;;;;5109898;28;20042;-57
2023/04/11 04:19:43;;;;;;;14.83;1.87;;;7.80;99.90;;;;;;5098412;27;20117;-58
2023/04/11 04:22:16;;;;;;;13.60;2.03;;;7.80;99.90;;;;;;5104866;28;20346;-59
2023/04/11 04:24:44;;;;;;;17.70;2.13;;;7.80;99.90;;;;;;5102171;28;20088;-56
2023/04/11 04:27:16;;;;;;;17.52;2.38;;;7.80;99.90;;;;;;5105532;28;20488;-57
2023/04/11 04:29:45;;;;;;;22.83;4.20;;;7.80;99.90;;;;;;5095327;28;20040;-57
2023/04/11 04:32:19;;;;;;;14.25;3.42;;;7.80;99.90;;;;;;5096241;28;20027;-58
2023/04/11 04:34:48;;;;;;;15.10;3.42;;;7.80;99.90;;;;;;5095882;28;20093;-59
2023/04/11 04:37:23;;;;;;;22.15;4.13;;;7.80;99.90;;;;;;5091883;28;20155;-57
2023/04/11 04:40:00;;;;;;;16.23;4.32;;;7.80;99.90;;;;;;5098491;28;20043;-58
2023/04/11 04:42:27;;;;;;;;;;;7.80;99.90;;;;;;5103191;28;20111;-57
2023/04/11 04:44:54;;;;;;;16.63;3.47;;;7.80;99.90;;;;;;5108798;28;19916;-57
2023/04/11 04:47:27;;;;;;;11.10;1.98;;;7.90;99.90;;;;;;5108125;27;20036;-60
2023/04/11 04:49:55;;;;;;;12.43;2.33;;;7.90;99.90;;;;;;5102189;28;20050;-59
2023/04/11 04:52:21;;;;;;;7.72;2.13;;;7.90;99.90;;;;;;5107741;28;20047;-56
2023/04/11 04:54:47;;;;;;;12.88;2.42;;;7.90;99.90;;;;;;5096383;28;20181;-57
2023/04/11 04:57:12;;;;;;;13.87;2.13;;;7.90;99.90;;;;;;5090923;28;20512;-57
2023/04/11 04:59:38;;;;;;;14.73;2.97;;;7.90;99.90;;;;;;5091339;28;20105;-58
2023/04/11 05:02:04;;;;;;;7.57;2.10;;;7.90;99.90;;;;;;5091614;28;20613;-57
2023/04/11 05:04:30;;;;;;;9.00;2.20;;;7.90;99.90;;;;;;5096612;28;20031;-58
2023/04/11 05:06:56;;;;;;;;;;;7.90;99.90;;;;;;5102700;28;20032;-59
2023/04/11 05:09:21;;;;;;;15.10;1.83;;;7.90;99.90;;;;;;5100727;28;19977;-57
2023/04/11 05:11:49;;;;;;;14.27;2.75;;;7.80;99.90;;;;;;5095216;28;20038;-58
2023/04/11 05:14:14;;;;;;;10.80;2.50;;;7.80;99.90;;;;;;5093347;28;20065;-57
2023/04/11 05:16:41;;;;;;;12.40;2.27;;;7.90;99.90;;;;;;5106575;28;20027;-60
2023/04/11 05:19:07;;;;;;;18.30;3.30;;;7.80;99.90;;;;;;5105022;28;20036;-56
2023/04/11 05:21:32;;;;;;;10.75;2.50;;;7.80;99.90;;;;;;5091501;28;20043;-59
2023/04/11 05:23:58;;;;;;;13.03;2.33;;;7.90;99.90;;;;;;5090514;28;20028;-57
2023/04/11 05:26:23;;;;;;;7.23;2.17;;;7.90;99.90;;;;;;5107520;28;20118;-57
2023/04/11 05:28:49;;;;;;;13.13;2.63;;;7.90;99.90;;;;;;5088883;28;20036;-57
2023/04/11 05:31:15;;;;;;;14.63;1.98;;;7.90;99.90;;;;;;5105519;28;20504;-57
2023/04/11 05:33:42;;;;;;;7.85;1.95;;;7.90;99.90;;;;;;5098098;28;20119;-58
2023/04/11 05:36:12;;;;;;;10.75;2.45;;;7.90;99.90;;;;;;5091250;28;20039;-58
2023/04/11 05:38:39;;;;;;;12.48;1.63;;;7.90;99.90;;;;;;5088645;28;20040;-57
2023/04/11 05:41:06;;;;;;;6.03;1.65;;;7.90;99.90;;;;;;5094126;28;20046;-58
2023/04/11 05:43:31;;;;;;;;;;;7.90;99.90;;;;;;5104428;28;20067;-57
2023/04/11 05:45:57;;;;;;;12.13;1.52;;;7.90;99.90;;;;;;5104330;28;19951;-57
2023/04/11 05:48:22;;;;;;;12.50;2.10;;;7.90;99.90;;;;;;5107164;28;20377;-57
2023/04/11 05:50:51;;;;;;;9.50;1.23;;;7.90;99.90;;;;;;5106635;28;20353;-58
2023/04/11 05:53:17;;;;;;;12.50;1.20;;;7.90;99.90;;;;;;5102448;28;20293;-59
2023/04/11 05:55:43;;;;;;;13.10;1.55;;;8.00;99.90;;;;;;5095266;28;20031;-60
2023/04/11 05:58:09;;;;;;;7.57;1.43;;;8.00;99.90;;;;;;5088391;28;20035;-56
2023/04/11 06:00:37;;;;;;;13.20;1.20;;;8.00;99.90;;;;;;5102517;28;20051;-55
2023/04/11 06:03:03;;;;;;;9.32;1.92;;;8.00;99.90;;;;;;5097962;28;20084;-56
2023/04/11 06:05:33;;;;;;;12.80;2.75;;;8.10;99.90;;;;;;5105449;28;20024;-55
2023/04/11 06:08:03;;;;;;;5.40;1.02;;;8.00;99.90;;;;;;5105259;28;20042;-58
2023/04/11 06:10:30;;;;;;;7.15;1.88;;;8.00;99.90;;;;;;5104327;28;20078;-56
2023/04/11 06:12:56;;;;;;;12.13;1.20;;;8.10;99.90;;;;;;5096893;28;20172;-57
2023/04/11 06:15:23;;;;;;;7.60;1.85;;;8.10;99.90;;;;;;5097350;28;20393;-58
2023/04/11 06:17:48;;;;;;;13.77;2.35;;;8.10;99.90;;;;;;5092287;28;20461;-57
2023/04/11 06:20:15;;;;;;;10.27;1.83;;;8.20;99.90;;;;;;5102418;28;20071;-59
2023/04/11 06:22:41;;;;;;;6.97;1.17;;;8.20;99.90;;;;;;5094310;28;20409;-58
2023/04/11 06:25:07;;;;;;;7.28;1.40;;;8.20;99.90;;;;;;5094120;28;20040;-59
2023/04/11 06:27:33;;;;;;;10.73;1.38;;;8.30;99.90;;;;;;5101925;28;20112;-59
2023/04/11 06:29:58;;;;;;;11.80;2.17;;;8.30;99.90;;;;;;5093548;28;20028;-57
2023/04/11 06:32:24;;;;;;;5.35;1.52;;;8.30;99.90;;;;;;5108030;28;20047;-58
2023/04/11 06:34:50;;;;;;;8.60;1.70;;;8.30;99.90;;;;;;5108957;28;20524;-56
2023/04/11 06:37:16;;;;;;;8.40;1.75;;;8.30;99.90;;;;;;5087618;28;20054;-57
2023/04/11 06:39:42;;;;;;;11.30;1.77;;;8.30;99.90;;;;;;5096745;28;20028;-56
2023/04/11 06:42:08;;;;;;;12.43;1.20;;;8.30;99.90;;;;;;5098433;28;20237;-59
2023/04/11 06:44:34;;;;;;;9.77;1.38;;;8.30;99.90;;;;;;5095248;28;20144;-58
2023/04/11 06:46:59;;;;;;;7.65;0.90;;;8.40;99.90;;;;;;5107237;28;20050;-56
2023/04/11 06:49:26;;;;;;;10.75;1.45;;;8.40;99.90;;;;;;5102406;28;20059;-57
2023/04/11 06:51:53;;;;;;;10.88;1.02;;;8.40;99.90;;;;;;5091901;28;20027;-56
2023/04/11 06:54:19;;;;;;;7.35;1.27;;;8.40;99.90;;;;;;5105006;28;20089;-58
2023/04/11 06:56:46;;;;;;;8.65;1.73;;;8.40;99.90;;;;;;5108803;28;20062;-54
2023/04/11 06:59:12;;;;;;;10.25;1.73;;;8.40;99.90;;;;;;5097824;28;20039;-54
2023/04/11 07:01:38;;;;;;;11.90;1.52;;;8.40;99.90;;;;;;5089002;28;20578;-56
2023/04/11 07:04:07;;;;;;;10.43;1.63;;;8.40;99.90;;;;;;5094271;28;20043;-54
2023/04/11 07:06:34;;;;;;;4.65;0.85;;;8.40;99.90;;;;;;5108341;28;20036;-59
2023/04/11 07:09:00;;;;;;;7.63;1.38;;;8.40;99.90;;;;;;5100933;28;20035;-53
2023/04/11 07:11:27;;;;;;;6.18;1.20;;;8.40;99.90;;;;;;5107768;28;20085;-56
2023/04/11 07:13:54;;;;;;;9.90;2.60;;;8.40;99.90;;;;;;5092916;27;20524;-53
2023/04/11 07:16:20;;;;;;;7.32;1.35;;;8.40;99.90;;;;;;5102390;27;20496;-57
2023/04/11 07:18:46;;;;;;;8.75;1.35;;;8.50;99.90;;;;;;5103974;28;20069;-53
2023/04/11 07:21:13;;;;;;;21.35;2.83;;;8.50;99.90;;;;;;5100266;28;20192;-56
2023/04/11 07:23:39;;;;;;;11.43;1.55;;;8.60;99.90;;;;;;5101516;28;20032;-56
2023/04/11 07:26:10;;;;;;;12.40;0.90;;;8.60;99.90;;;;;;5099960;28;20031;-57
2023/04/11 07:28:37;;;;;;;8.18;0.82;;;8.60;99.90;;;;;;5095772;28;20501;-56
2023/04/11 07:31:04;;;;;;;8.55;0.95;;;8.60;99.90;;;;;;5104392;28;20043;-57
2023/04/11 07:33:30;;;;;;;6.88;0.82;;;8.60;99.90;;;;;;5101118;28;20024;-56
2023/04/11 07:35:56;;;;;;;12.97;2.00;;;8.70;99.90;;;;;;5104309;28;20430;-59
2023/04/11 07:38:30;;;;;;;18.00;1.67;;;8.70;99.90;;;;;;5098523;28;20089;-56
2023/04/11 07:40:57;;;;;;;6.97;0.95;;;8.70;99.90;;;;;;5092605;28;20086;-57
2023/04/11 07:43:23;;;;;;;10.30;0.82;;;8.80;99.90;;;;;;5105060;28;20047;-56
2023/04/11 07:45:49;;;;;;;9.48;1.50;;;8.80;99.90;;;;;;5093332;28;20065;-58
2023/04/11 07:48:15;;;;;;;10.47;1.03;;;8.80;99.90;;;;;;5105322;28;20044;-55
2023/04/11 07:50:40;;;;;;;12.73;1.93;;;8.90;99.90;;;;;;5105107;28;20282;-55
2023/04/11 07:53:06;;;;;;;11.87;1.77;;;8.90;99.90;;;;;;5105313;28;20043;-53
2023/04/11 07:55:32;;;;;;;9.57;0.80;;;8.90;99.90;;;;;;5097984;27;20118;-56
2023/04/11 07:57:58;;;;;;;9.05;1.40;;;9.00;99.90;;;;;;5091257;28;20474;-55
2023/04/11 08:00:23;;;;;;;10.57;1.10;;;8.90;99.90;;;;;;5077953;28;20118;-56
2023/04/11 08:02:50;;;;;;;13.73;1.00;;;9.00;99.90;;;;;;5101314;28;20297;-55
2023/04/11 08:05:16;;;;;;;9.77;0.88;;;9.00;99.90;;;;;;5098123;28;20126;-54
2023/04/11 08:07:42;;;;;;;11.73;0.93;;;9.10;99.90;;;;;;5090977;27;20127;-58
2023/04/11 08:10:08;;;;;;;13.13;1.33;;;9.20;99.90;;;;;;5088524;28;20088;-57
2023/04/11 08:12:33;;;;;;;8.38;1.33;;;9.30;99.90;;;;;;5098676;28;20323;-53
2023/04/11 08:14:59;;;;;;;8.82;1.40;;;9.50;99.90;;;;;;5093097;28;20047;-55
2023/04/11 08:17:27;;;;;;;6.68;0.85;;;9.60;99.90;;;;;;5089567;28;20142;-56
2023/04/11 08:19:54;;;;;;;7.45;1.17;;;9.60;99.90;;;;;;5088310;28;20425;-55
2023/04/11 08:22:19;;;;;;;;;;;9.50;99.90;;;;;;5087590;28;20048;-54
2023/04/11 08:24:45;;;;;;;14.10;1.77;;;9.50;99.90;;;;;;5089927;28;20321;-56
2023/04/11 08:27:10;;;;;;;8.40;1.43;;;9.60;99.90;;;;;;5093945;28;20047;-54
2023/04/11 08:29:36;;;;;;;5.65;1.15;;;9.60;99.90;;;;;;5100209;28;20047;-56
2023/04/11 08:32:03;;;;;;;3.87;1.20;;;9.70;99.90;;;;;;5097839;28;20027;-55
2023/04/11 08:34:31;;;;;;;4.60;0.60;;;9.80;99.90;;;;;;5102630;28;20392;-58
2023/04/11 08:36:57;;;;;;;13.60;0.93;;;9.80;99.90;;;;;;5100252;28;20036;-55
2023/04/11 08:39:22;;;;;;;6.20;0.53;;;9.80;99.90;;;;;;5100375;28;20523;-53
2023/04/11 08:41:48;;;;;;;8.13;1.53;;;9.70;99.90;;;;;;5097326;28;20218;-56
2023/04/11 08:44:13;;;;;;;5.80;1.13;;;9.70;99.90;;;;;;5096217;28;20065;-56
2023/04/11 08:46:41;;;;;;;8.07;0.67;;;9.80;99.90;;;;;;5101513;28;20114;-55
2023/04/11 08:49:06;;;;;;;9.15;1.55;;;10.00;99.90;;;;;;5087810;28;20554;-57
2023/04/11 08:51:32;;;;;;;5.87;1.07;;;10.10;99.90;;;;;;5088417;28;20032;-53
2023/04/11 08:54:04;;;;;;;7.93;1.07;;;10.20;99.90;;;;;;5099859;28;20032;-56
2023/04/11 08:56:30;;;;;;;3.80;0.60;;;10.20;99.90;;;;;;5099522;28;20059;-55
2023/04/11 08:58:55;;;;;;;6.30;0.90;;;10.20;99.90;;;;;;5090750;28;20035;-56
2023/04/11 09:01:31;;;;;;;5.40;1.27;;;10.10;99.90;;;;;;5087019;28;20416;-55
2023/04/11 09:04:04;;;;;;;8.82;1.13;;;10.00;99.90;;;;;;5093991;28;20045;-56
2023/04/11 09:06:31;;;;;;;5.85;0.68;;;9.80;99.90;;;;;;5098336;28;20031;-56
2023/04/11 09:09:04;;;;;;;4.47;0.95;;;9.70;99.90;;;;;;5097949;28;20471;-56
2023/04/11 09:11:30;;;;;;;10.77;0.73;;;9.60;99.90;;;;;;5093957;28;20507;-57
2023/04/11 09:14:08;;;;;;;9.48;1.67;;;9.50;99.90;;;;;;5088983;28;20049;-55
2023/04/11 09:16:34;;;;;;;8.75;0.88;;;9.40;99.90;;;;;;5095086;28;20054;-57
2023/04/11 09:18:59;;;;;;;8.95;1.33;;;9.10;99.90;;;;;;5099908;28;20413;-56
2023/04/11 09:21:28;;;;;;;9.85;1.10;;;9.00;99.90;;;;;;5099676;28;20028;-56
2023/04/11 09:23:54;;;;;;;9.23;1.13;;;8.90;99.90;;;;;;5095670;28;20035;-56
2023/04/11 09:26:28;;;;;;;11.85;1.70;;;8.90;99.90;;;;;;5090403;28;20039;-56
2023/04/11 09:28:54;;;;;;;8.15;1.77;;;8.90;99.90;;;;;;5102422;28;20028;-57
2023/04/11 09:31:20;;;;;;;2.97;0.97;;;8.80;99.90;;;;;;5094237;28;20043;-56
2023/04/11 09:33:57;;;;;;;7.88;0.90;;;8.70;99.90;;;;;;5101875;28;20031;-56
2023/04/11 09:36:25;;;;;;;3.47;0.50;;;8.50;99.90;;;;;;5105641;28;20054;-57
2023/04/11 09:38:52;;;;;;;4.38;0.93;;;8.40;99.90;;;;;;5104199;28;20047;-57
2023/04/11 09:41:32;;;;;;;11.05;0.95;;;8.30;99.90;;;;;;5099213;28;20222;-58
2023/04/11 09:43:58;;;;;;;8.60;0.57;;;8.30;99.90;;;;;;5093394;28;20066;-57
2023/04/11 09:46:24;;;;;;;4.97;1.42;;;8.30;99.90;;;;;;5089189;28;20036;-58
2023/04/11 09:48:51;;;;;;;11.57;1.20;;;8.40;99.90;;;;;;5091675;28;20109;-56
2023/04/11 09:51:18;;;;;;;9.07;1.00;;;8.60;99.90;;;;;;5094927;28;20036;-57
2023/04/11 09:53:44;;;;;;;6.72;0.98;;;8.80;99.90;;;;;;5101818;28;20369;-57
2023/04/11 09:56:10;;;;;;;8.10;1.08;;;9.20;99.90;;;;;;5098806;28;20160;-57
2023/04/11 09:58:38;;;;;;;10.73;0.93;;;9.50;99.90;;;;;;5094452;28;20043;-56
2023/04/11 10:01:06;;;;;;;3.13;0.45;;;9.60;99.90;;;;;;5096275;28;20055;-57
2023/04/11 10:03:37;;;;;;;4.68;0.40;;;9.60;99.90;;;;;;5102219;28;20448;-58
2023/04/11 10:06:08;;;;;;;3.95;0.60;;;9.50;99.90;;;;;;5093423;28;20052;-58
2023/04/11 10:08:38;;;;;;;5.57;1.23;;;9.30;99.90;;;;;;5096683;28;20217;-56
2023/04/11 10:11:07;;;;;;;6.35;0.45;;;9.10;99.90;;;;;;5098897;28;20093;-57
2023/04/11 10:13:40;;;;;;;3.83;0.47;;;9.00;99.90;;;;;;5096265;28;20063;-57
2023/04/11 10:16:12;;;;;;;5.53;0.88;;;9.00;99.90;;;;;;5100546;28;20032;-57
2023/04/11 10:18:59;;;;;;;7.47;1.00;;;9.20;99.90;;;;;;5091194;28;20046;-57
2023/04/11 10:21:33;;;;;;;10.40;1.33;;;9.30;99.90;;;;;;5093725;28;20052;-57
2023/04/11 10:24:08;;;;;;;7.50;0.50;;;9.40;99.90;;;;;;5093909;28;20043;-57
2023/04/11 10:27:05;;;;;;;5.18;0.88;;;9.50;99.90;;;;;;5096958;28;20166;-57
2023/04/11 10:29:33;;;;;;;10.88;1.13;;;9.70;99.90;;;;;;5090272;28;20127;-57
2023/04/11 10:32:15;;;;;;;8.07;1.20;;;9.90;99.90;;;;;;5101113;28;20047;-57
2023/04/11 10:34:49;;;;;;;9.95;1.50;;;10.20;99.90;;;;;;5091981;28;20036;-57
2023/04/11 10:37:16;;;;;;;10.43;1.42;;;10.40;99.90;;;;;;5089684;28;20043;-57
2023/04/11 10:39:59;;;;;;;6.80;0.63;;;10.60;99.90;;;;;;5097062;28;20044;-58
2023/04/11 10:42:31;;;;;;;10.57;0.85;;;10.70;99.90;;;;;;5092960;28;20495;-57
2023/04/11 10:45:26;;;;;;;12.63;1.40;;;10.80;99.90;;;;;;5100685;28;20043;-58
2023/04/11 10:47:57;;;;;;;8.23;1.40;;;11.10;99.90;;;;;;5105929;28;20040;-58
2023/04/11 10:50:26;;;;;;;8.15;0.73;;;11.20;99.90;;;;;;5104435;28;20039;-58
2023/04/11 10:52:52;;;;;;;4.88;1.10;;;11.20;99.90;;;;;;5095553;28;20043;-57
2023/04/11 10:55:18;;;;;;;8.43;0.80;;;11.00;99.90;;;;;;5105628;28;20638;-57
2023/04/11 10:58:06;;;;;;;7.10;1.02;;;10.90;99.90;;;;;;5105796;28;20106;-59
2023/04/11 11:00:48;;;;;;;8.93;1.50;;;10.80;99.90;;;;;;5104609;28;20195;-58
2023/04/11 11:03:23;;;;;;;8.60;1.25;;;10.70;99.90;;;;;;5104884;28;20067;-57
2023/04/11 11:06:00;;;;;;;11.27;1.23;;;10.50;99.90;;;;;;5096709;28;20517;-58
2023/04/11 11:08:29;;;;;;;8.27;1.00;;;10.40;99.90;;;;;;5104895;28;20039;-57
2023/04/11 11:11:02;;;;;;;10.70;0.98;;;10.30;99.90;;;;;;5092322;28;20389;-57
2023/04/11 11:13:44;;;;;;;8.93;1.10;;;10.30;99.90;;;;;;5094283;28;20111;-58
2023/04/11 11:16:17;;;;;;;8.48;1.38;;;10.40;99.90;;;;;;5097287;28;20122;-56
2023/04/11 11:18:55;;;;;;;10.02;1.20;;;10.50;99.90;;;;;;5103667;28;20046;-57
2023/04/11 11:21:23;;;;;;;4.32;0.75;;;10.60;99.90;;;;;;5095842;28;20043;-58
2023/04/11 11:23:57;;;;;;;6.75;0.93;;;10.80;99.90;;;;;;5102519;28;20048;-58
2023/04/11 11:26:34;;;;;;;6.07;0.50;;;11.20;99.90;;;;;;5096883;28;20051;-58
2023/04/11 11:29:00;;;;;;;5.60;1.33;;;11.50;99.90;;;;;;5098158;28;20043;-56
2023/04/11 11:31:35;;;;;;;7.30;0.75;;;11.70;99.90;;;;;;5105230;28;20039;-57
2023/04/11 11:34:01;;;;;;;3.67;0.70;;;11.90;99.90;;;;;;5091532;28;20028;-57
2023/04/11 11:36:28;;;;;;;10.70;0.68;;;11.90;99.90;;;;;;5090235;28;20683;-57
2023/04/11 11:38:53;;;;;;;3.33;0.30;;;12.00;99.90;;;;;;5102553;28;20043;-57
2023/04/11 11:41:19;;;;;;;5.50;0.43;;;12.00;99.90;;;;;;5102171;28;21416;-58
2023/04/11 11:43:45;;;;;;;6.65;1.10;;;11.90;99.90;;;;;;5104271;28;20508;-56
2023/04/11 11:46:13;;;;;;;7.20;0.32;;;11.90;98.00;;;;;;5098900;28;20096;-56
2023/04/11 11:48:56;;;;;;;7.10;0.63;;;11.80;98.30;;;;;;5104559;28;20028;-56
2023/04/11 11:51:21;;;;;;;3.97;0.40;;;11.90;98.40;;;;;;5101730;28;20116;-58
2023/04/11 11:54:04;;;;;;;3.05;0.32;;;11.80;97.80;;;;;;5105197;28;20071;-56
2023/04/11 11:56:30;;;;;;;4.03;0.60;;;11.90;97.00;;;;;;5096457;28;20036;-56
2023/04/11 11:58:56;;;;;;;4.55;0.70;;;11.90;97.50;;;;;;5092031;28;20132;-57
2023/04/11 12:01:22;;;;;;;6.53;0.80;;;11.80;97.80;;;;;;5098630;28;20823;-58
2023/04/11 12:03:49;;;;;;;4.03;0.60;;;11.70;97.50;;;;;;5092759;28;20035;-57
2023/04/11 12:06:16;;;;;;;2.63;0.40;;;11.50;97.00;;;;;;5095489;28;20062;-57
2023/04/11 12:08:50;;;;;;;5.80;0.65;;;11.40;97.60;;;;;;5105050;28;20162;-54
2023/04/11 12:11:17;;;;;;;6.35;0.70;;;11.40;97.40;;;;;;5101937;28;20277;-57
2023/04/11 12:13:46;;;;;;;5.95;0.95;;;11.60;97.40;;;;;;5104322;28;20136;-56
2023/04/11 12:16:13;;;;;;;8.75;0.95;;;11.60;97.70;;;;;;5098801;28;20031;-57
2023/04/11 12:18:42;;;;;;;7.28;0.95;;;11.50;96.70;;;;;;5102828;28;20043;-56
2023/04/11 12:21:08;;;;;;;8.15;1.65;;;11.30;97.50;;;;;;5090823;28;20129;-57
2023/04/11 12:23:34;;;;;;;2.85;0.40;;;11.50;97.40;;;;;;5096768;28;20040;-57
2023/04/11 12:25:59;;;;;;;5.18;0.30;;;11.50;96.90;;;;;;5097923;28;20169;-57
2023/04/11 12:28:25;;;;;;;3.93;0.70;;;11.60;96.50;;;;;;5104217;28;20043;-57
2023/04/11 12:30:50;;;;;;;5.38;0.28;;;11.70;95.50;;;;;;5092255;28;20294;-57
2023/04/11 12:33:16;;;;;;;8.33;0.70;;;11.80;96.90;;;;;;5094641;28;20291;-58
2023/04/11 12:35:42;;;;;;;5.82;0.45;;;12.00;96.60;;;;;;5091059;28;20285;-57
2023/04/11 12:38:07;;;;;;;4.50;0.63;;;12.10;94.70;;;;;;5096130;28;20635;-56
2023/04/11 12:40:33;;;;;;;4.45;0.38;;;12.20;95.70;;;;;;5093262;28;20121;-56
2023/04/11 12:42:58;;;;;;;5.38;0.65;;;12.20;95.70;;;;;;5097994;28;20050;-56
2023/04/11 12:45:25;;;;;;;8.10;0.80;;;12.30;93.70;;;;;;5092973;28;20036;-56
2023/04/11 12:47:50;;;;;;;9.88;1.25;;;12.20;93.80;;;;;;5092249;28;20350;-57
2023/04/11 12:50:16;;;;;;;5.30;0.55;;;12.30;95.30;;;;;;5096833;28;20036;-57
2023/04/11 12:52:42;;;;;;;8.00;0.77;;;12.40;95.50;;;;;;5102154;28;20043;-57
2023/04/11 12:55:08;;;;;;;8.60;0.68;;;12.40;95.00;;;;;;5089125;28;20285;-58